Time,TemperatureF,DewpointF,PressureIn,WindDirection,WindDirectionDegrees,WindSpeedMPH,WindSpeedGustMPH,Humidity,HourlyPrecipIn,Conditions,Clouds,dailyrainin,SoftwareType,DateUTC
2013-01-25 00:00:00,28.1,10.9,30.44,North,10,10.0,11.0,48,0.00,,---,0.00,VWS V14.01,2013-01-25 05:00:00,
2013-01-25 00:01:00,28.1,10.9,30.44,NNE,15,10.0,14.0,48,0.00,,---,0.00,VWS V14.01,2013-01-25 05:01:00,
2013-01-25 00:02:00,28.0,10.9,30.44,NNE,17,10.0,14.0,48,0.00,,---,0.00,VWS V14.01,2013-01-25 05:02:00,
2013-01-25 00:03:00,28.0,11.3,30.44,NNE,14,11.0,14.0,49,0.00,,---,0.00,VWS V14.01,2013-01-25 05:03:00,
2013-01-25 00:08:00,28.0,10.9,30.44,NNE,28,10.0,14.0,48,0.00,,---,0.00,VWS V14.01,2013-01-25 05:08:00,
2013-01-25 00:13:00,28.0,11.3,30.44,NNE,24,7.0,13.0,49,0.00,,---,0.00,VWS V14.01,2013-01-25 05:13:00,
2013-01-25 00:18:00,27.9,11.7,30.43,NNE,33,6.0,12.0,50,0.00,,---,0.00,VWS V14.01,2013-01-25 05:18:00,
2013-01-25 00:23:00,27.9,11.7,30.43,NE,35,7.0,15.0,50,0.00,,---,0.00,VWS V14.01,2013-01-25 05:23:00,
2013-01-25 00:28:00,27.9,11.7,30.43,NNE,31,4.0,12.0,50,0.00,,---,0.00,VWS V14.01,2013-01-25 05:28:00,
2013-01-25 00:33:00,27.8,12.0,30.44,NE,52,4.0,7.0,51,0.00,,---,0.00,VWS V14.01,2013-01-25 05:33:00,
2013-01-25 00:38:00,27.6,11.9,30.44,NE,46,3.0,11.0,51,0.00,,---,0.00,VWS V14.01,2013-01-25 05:38:00,
2013-01-25 00:43:00,27.6,11.9,30.44,NE,42,8.0,14.0,51,0.00,,---,0.00,VWS V14.01,2013-01-25 05:43:00,
2013-01-25 00:48:00,27.6,11.9,30.43,NE,44,6.0,11.0,51,0.00,,---,0.00,VWS V14.01,2013-01-25 05:48:00,
2013-01-25 00:53:00,27.5,11.8,30.43,NE,49,0.0,11.0,51,0.00,,---,0.00,VWS V14.01,2013-01-25 05:53:00,
2013-01-25 00:58:00,27.4,12.5,30.43,NNE,28,2.0,9.0,53,0.00,,---,0.00,VWS V14.01,2013-01-25 05:58:00,
2013-01-25 01:03:00,27.4,11.7,30.44,NNE,30,6.0,10.0,51,0.00,,---,0.00,VWS V14.01,2013-01-25 06:03:00,
2013-01-25 01:08:00,27.5,10.9,30.44,NNE,21,5.0,11.0,49,0.00,,---,0.00,VWS V14.01,2013-01-25 06:08:00,
2013-01-25 01:13:00,27.6,12.3,30.44,NE,39,4.0,10.0,52,0.00,,---,0.00,VWS V14.01,2013-01-25 06:13:00,
2013-01-25 01:18:00,27.5,12.2,30.44,NE,48,4.0,9.0,52,0.00,,---,0.00,VWS V14.01,2013-01-25 06:18:00,
2013-01-25 01:23:00,27.4,12.5,30.44,NE,44,2.0,9.0,53,0.00,,---,0.00,VWS V14.01,2013-01-25 06:23:00,
2013-01-25 01:28:00,27.4,12.1,30.44,NE,36,4.0,10.0,52,0.00,,---,0.00,VWS V14.01,2013-01-25 06:28:00,
2013-01-25 01:33:00,27.4,12.5,30.43,NE,42,1.0,9.0,53,0.00,,---,0.00,VWS V14.01,2013-01-25 06:33:00,
2013-01-25 01:38:00,27.4,12.5,30.43,NE,43,5.0,10.0,53,0.00,,---,0.00,VWS V14.01,2013-01-25 06:38:00,
2013-01-25 01:43:00,27.4,12.5,30.43,NE,38,5.0,11.0,53,0.00,,---,0.00,VWS V14.01,2013-01-25 06:43:00,
2013-01-25 01:48:00,27.4,12.5,30.44,NE,42,8.0,12.0,53,0.00,,---,0.00,VWS V14.01,2013-01-25 06:48:00,
2013-01-25 01:53:00,27.4,13.0,30.44,NNE,33,9.0,10.0,54,0.00,,---,0.00,VWS V14.01,2013-01-25 06:53:00,
2013-01-25 01:58:00,27.5,13.1,30.44,NE,36,3.0,10.0,54,0.00,,---,0.00,VWS V14.01,2013-01-25 06:58:00,
2013-01-25 02:03:00,27.5,13.5,30.44,NE,49,5.0,9.0,55,0.00,,---,0.00,VWS V14.01,2013-01-25 07:03:00,
2013-01-25 02:08:00,27.5,13.5,30.44,NE,42,5.0,12.0,55,0.00,,---,0.00,VWS V14.01,2013-01-25 07:08:00,
2013-01-25 02:13:00,27.6,14.0,30.44,NE,46,5.0,10.0,56,0.00,,---,0.00,VWS V14.01,2013-01-25 07:13:00,
2013-01-25 02:18:00,27.6,14.0,30.44,NE,43,5.0,11.0,56,0.00,,---,0.00,VWS V14.01,2013-01-25 07:18:00,
2013-01-25 02:23:00,27.5,14.3,30.44,NNE,27,11.0,11.0,57,0.00,,---,0.00,VWS V14.01,2013-01-25 07:23:00,
2013-01-25 02:28:00,27.6,14.0,30.44,NE,39,0.0,12.0,56,0.00,,---,0.00,VWS V14.01,2013-01-25 07:28:00,
2013-01-25 02:33:00,27.7,14.1,30.44,NNE,30,3.0,12.0,56,0.00,,---,0.00,VWS V14.01,2013-01-25 07:33:00,
2013-01-25 02:38:00,27.6,14.0,30.44,NNE,28,5.0,10.0,56,0.00,,---,0.00,VWS V14.01,2013-01-25 07:38:00,
2013-01-25 02:43:00,27.7,14.5,30.44,NNE,22,4.0,10.0,57,0.00,,---,0.00,VWS V14.01,2013-01-25 07:43:00,
2013-01-25 02:48:00,27.6,15.2,30.44,NNE,22,0.0,6.0,59,0.00,,---,0.00,VWS V14.01,2013-01-25 07:48:00,
2013-01-25 02:53:00,27.6,14.8,30.44,North,11,3.0,7.0,58,0.00,,---,0.00,VWS V14.01,2013-01-25 07:53:00,
2013-01-25 02:58:00,27.5,14.7,30.44,North,5,0.0,5.0,58,0.00,,---,0.00,VWS V14.01,2013-01-25 07:58:00,
2013-01-25 03:03:00,27.4,14.6,30.45,NNE,13,6.0,7.0,58,0.00,,---,0.00,VWS V14.01,2013-01-25 08:03:00,
2013-01-25 03:08:00,27.4,14.6,30.45,North,360,2.0,8.0,58,0.00,,---,0.00,VWS V14.01,2013-01-25 08:08:00,
2013-01-25 03:13:00,27.3,14.1,30.45,North,5,3.0,7.0,57,0.00,,---,0.00,VWS V14.01,2013-01-25 08:13:00,
2013-01-25 03:18:00,27.2,14.0,30.44,NNE,16,4.0,8.0,57,0.00,,---,0.00,VWS V14.01,2013-01-25 08:18:00,
2013-01-25 03:23:00,27.2,14.0,30.44,North,9,6.0,7.0,57,0.00,,---,0.00,VWS V14.01,2013-01-25 08:23:00,
2013-01-25 03:28:00,27.1,13.9,30.44,North,10,5.0,9.0,57,0.00,,---,0.00,VWS V14.01,2013-01-25 08:28:00,
2013-01-25 03:33:00,27.1,13.9,30.44,North,5,7.0,8.0,57,0.00,,---,0.00,VWS V14.01,2013-01-25 08:33:00,
2013-01-25 03:38:00,27.1,14.3,30.44,North,360,6.0,7.0,58,0.00,,---,0.00,VWS V14.01,2013-01-25 08:38:00,
2013-01-25 03:43:00,27.0,14.2,30.44,North,360,4.0,7.0,58,0.00,,---,0.00,VWS V14.01,2013-01-25 08:43:00,
2013-01-25 03:48:00,26.9,14.1,30.44,North,360,5.0,7.0,58,0.00,,---,0.00,VWS V14.01,2013-01-25 08:48:00,
2013-01-25 03:53:00,26.9,14.1,30.44,North,360,3.0,7.0,58,0.00,,---,0.00,VWS V14.01,2013-01-25 08:53:00,
2013-01-25 03:58:00,26.9,14.1,30.44,North,11,4.0,6.0,58,0.00,,---,0.00,VWS V14.01,2013-01-25 08:58:00,
2013-01-25 04:03:00,26.9,14.1,30.44,North,5,6.0,9.0,58,0.00,,---,0.00,VWS V14.01,2013-01-25 09:03:00,
2013-01-25 04:08:00,26.9,14.5,30.44,NNE,16,4.0,10.0,59,0.00,,---,0.00,VWS V14.01,2013-01-25 09:08:00,
2013-01-25 04:13:00,26.9,14.5,30.44,NNE,13,6.0,8.0,59,0.00,,---,0.00,VWS V14.01,2013-01-25 09:13:00,
2013-01-25 04:18:00,26.8,14.4,30.43,North,10,4.0,9.0,59,0.00,,---,0.00,VWS V14.01,2013-01-25 09:18:00,
2013-01-25 04:23:00,26.7,14.3,30.43,North,11,5.0,9.0,59,0.00,,---,0.00,VWS V14.01,2013-01-25 09:23:00,
2013-01-25 04:28:00,26.7,14.3,30.43,NNE,15,6.0,10.0,59,0.00,,---,0.00,VWS V14.01,2013-01-25 09:28:00,
2013-01-25 04:33:00,26.9,14.9,30.42,NNE,15,4.0,9.0,60,0.00,,---,0.00,VWS V14.01,2013-01-25 09:33:00,
2013-01-25 04:38:00,26.9,14.9,30.42,NNE,13,6.0,9.0,60,0.00,,---,0.00,VWS V14.01,2013-01-25 09:38:00,
2013-01-25 04:43:00,26.8,14.4,30.42,North,5,6.0,9.0,59,0.00,,---,0.00,VWS V14.01,2013-01-25 09:43:00,
2013-01-25 04:48:00,26.8,14.4,30.43,North,360,6.0,10.0,59,0.00,,---,0.00,VWS V14.01,2013-01-25 09:48:00,
2013-01-25 04:53:00,26.7,14.7,30.43,North,5,6.0,8.0,60,0.00,,---,0.00,VWS V14.01,2013-01-25 09:53:00,
2013-01-25 04:58:00,26.8,14.8,30.43,NNE,12,6.0,9.0,60,0.00,,---,0.00,VWS V14.01,2013-01-25 09:58:00,
2013-01-25 05:03:00,26.7,14.7,30.43,North,5,5.0,9.0,60,0.00,,---,0.00,VWS V14.01,2013-01-25 10:03:00,
2013-01-25 05:08:00,26.7,15.1,30.43,North,360,5.0,7.0,61,0.00,,---,0.00,VWS V14.01,2013-01-25 10:08:00,
2013-01-25 05:13:00,26.7,15.1,30.43,NNE,23,5.0,10.0,61,0.00,,---,0.00,VWS V14.01,2013-01-25 10:13:00,
2013-01-25 05:18:00,26.7,15.1,30.42,NNE,22,7.0,10.0,61,0.00,,---,0.00,VWS V14.01,2013-01-25 10:18:00,
2013-01-25 05:23:00,26.9,15.3,30.42,NNE,21,7.0,11.0,61,0.00,,---,0.00,VWS V14.01,2013-01-25 10:23:00,
2013-01-25 05:28:00,27.0,15.7,30.42,NNE,23,9.0,12.0,62,0.00,,---,0.00,VWS V14.01,2013-01-25 10:28:00,
2013-01-25 05:33:00,27.1,15.4,30.41,NNE,13,6.0,12.0,61,0.00,,---,0.00,VWS V14.01,2013-01-25 10:33:00,
2013-01-25 05:38:00,27.1,15.4,30.41,North,9,5.0,10.0,61,0.00,,---,0.00,VWS V14.01,2013-01-25 10:38:00,
2013-01-25 05:43:00,27.1,15.8,30.41,North,5,4.0,9.0,62,0.00,,---,0.00,VWS V14.01,2013-01-25 10:43:00,
2013-01-25 05:48:00,27.0,15.4,30.42,NNE,18,8.0,12.0,61,0.00,,---,0.00,VWS V14.01,2013-01-25 10:48:00,
2013-01-25 05:53:00,27.0,15.4,30.42,North,5,8.0,10.0,61,0.00,,---,0.00,VWS V14.01,2013-01-25 10:53:00,
2013-01-25 05:58:00,27.0,15.7,30.42,North,5,5.0,8.0,62,0.00,,---,0.00,VWS V14.01,2013-01-25 10:58:00,
2013-01-25 06:03:00,27.0,15.4,30.42,North,5,7.0,9.0,61,0.00,,---,0.00,VWS V14.01,2013-01-25 11:03:00,
2013-01-25 06:08:00,27.1,15.8,30.42,North,5,7.0,10.0,62,0.00,,---,0.00,VWS V14.01,2013-01-25 11:08:00,
2013-01-25 06:13:00,27.0,15.4,30.42,North,5,6.0,11.0,61,0.00,,---,0.00,VWS V14.01,2013-01-25 11:13:00,
2013-01-25 06:18:00,27.0,15.4,30.42,North,5,6.0,11.0,61,0.00,,---,0.00,VWS V14.01,2013-01-25 11:18:00,
2013-01-25 06:23:00,27.1,15.8,30.42,North,355,6.0,9.0,62,0.00,,---,0.00,VWS V14.01,2013-01-25 11:23:00,
2013-01-25 06:28:00,27.1,15.8,30.42,North,351,3.0,12.0,62,0.00,,---,0.00,VWS V14.01,2013-01-25 11:28:00,
2013-01-25 06:33:00,27.1,15.8,30.42,North,360,4.0,10.0,62,0.00,,---,0.00,VWS V14.01,2013-01-25 11:33:00,
2013-01-25 06:38:00,27.0,15.7,30.42,North,355,5.0,11.0,62,0.00,,---,0.00,VWS V14.01,2013-01-25 11:38:00,
2013-01-25 06:43:00,27.0,16.1,30.42,North,11,9.0,12.0,63,0.00,,---,0.00,VWS V14.01,2013-01-25 11:43:00,
2013-01-25 06:48:00,27.1,16.2,30.42,North,5,5.0,11.0,63,0.00,,---,0.00,VWS V14.01,2013-01-25 11:48:00,
2013-01-25 06:53:00,27.1,16.2,30.42,North,9,8.0,10.0,63,0.00,,---,0.00,VWS V14.01,2013-01-25 11:53:00,
2013-01-25 06:58:00,27.2,16.3,30.42,North,5,6.0,11.0,63,0.00,,---,0.00,VWS V14.01,2013-01-25 11:58:00,
2013-01-25 07:03:00,27.3,16.4,30.42,North,5,8.0,12.0,63,0.00,,---,0.00,VWS V14.01,2013-01-25 12:03:00,
2013-01-25 07:08:00,27.4,16.5,30.42,North,360,10.0,11.0,63,0.00,,---,0.00,VWS V14.01,2013-01-25 12:08:00,
2013-01-25 07:13:00,27.6,17.0,30.42,North,355,7.0,11.0,64,0.00,,---,0.00,VWS V14.01,2013-01-25 12:13:00,
2013-01-25 07:18:00,27.5,16.9,30.42,North,9,7.0,11.0,64,0.00,,---,0.00,VWS V14.01,2013-01-25 12:18:00,
2013-01-25 07:23:00,27.5,16.9,30.42,NNE,14,5.0,10.0,64,0.00,,---,0.00,VWS V14.01,2013-01-25 12:23:00,
2013-01-25 07:28:00,27.6,17.0,30.42,North,350,4.0,10.0,64,0.00,,---,0.00,VWS V14.01,2013-01-25 12:28:00,
2013-01-25 07:33:00,27.5,16.6,30.42,North,360,6.0,13.0,63,0.00,,---,0.00,VWS V14.01,2013-01-25 12:33:00,
2013-01-25 07:38:00,27.5,16.6,30.42,North,349,8.0,11.0,63,0.00,,---,0.00,VWS V14.01,2013-01-25 12:38:00,
2013-01-25 07:43:00,27.5,16.9,30.42,North,5,6.0,10.0,64,0.00,,---,0.00,VWS V14.01,2013-01-25 12:43:00,
2013-01-25 07:48:00,27.6,17.0,30.43,North,349,5.0,11.0,64,0.00,,---,0.00,VWS V14.01,2013-01-25 12:48:00,
2013-01-25 07:53:00,27.5,16.6,30.43,NNW,346,5.0,12.0,63,0.00,,---,0.00,VWS V14.01,2013-01-25 12:53:00,
2013-01-25 07:58:00,27.8,16.9,30.43,North,10,4.0,12.0,63,0.00,,---,0.00,VWS V14.01,2013-01-25 12:58:00,
2013-01-25 08:03:00,28.1,17.1,30.42,North,5,11.0,13.0,63,0.00,,---,0.00,VWS V14.01,2013-01-25 13:03:00,
2013-01-25 08:08:00,28.3,17.0,30.42,North,10,9.0,13.0,62,0.00,,---,0.00,VWS V14.01,2013-01-25 13:08:00,
2013-01-25 08:13:00,28.3,17.3,30.42,NNE,13,9.0,13.0,63,0.00,,---,0.00,VWS V14.01,2013-01-25 13:13:00,
2013-01-25 08:18:00,28.3,17.3,30.41,NNE,20,4.0,13.0,63,0.00,,---,0.00,VWS V14.01,2013-01-25 13:18:00,
2013-01-25 08:23:00,28.3,17.3,30.41,NNE,13,7.0,12.0,63,0.00,,---,0.00,VWS V14.01,2013-01-25 13:23:00,
2013-01-25 08:28:00,28.3,17.7,30.41,NNE,15,6.0,11.0,64,0.00,,---,0.00,VWS V14.01,2013-01-25 13:28:00,
2013-01-25 08:33:00,28.3,17.7,30.39,NNE,22,12.0,12.0,64,0.00,,---,0.00,VWS V14.01,2013-01-25 13:33:00,
2013-01-25 08:38:00,28.2,17.6,30.39,North,5,6.0,12.0,64,0.00,,---,0.00,VWS V14.01,2013-01-25 13:38:00,
2013-01-25 08:43:00,28.4,18.1,30.39,North,10,6.0,13.0,65,0.00,,---,0.00,VWS V14.01,2013-01-25 13:43:00,
2013-01-25 08:48:00,28.6,18.0,30.41,North,10,7.0,10.0,64,0.00,,---,0.00,VWS V14.01,2013-01-25 13:48:00,
2013-01-25 08:53:00,28.7,18.1,30.41,North,360,6.0,11.0,64,0.00,,---,0.00,VWS V14.01,2013-01-25 13:53:00,
2013-01-25 08:58:00,28.7,18.1,30.41,NNE,17,6.0,12.0,64,0.00,,---,0.00,VWS V14.01,2013-01-25 13:58:00,
2013-01-25 09:03:00,29.0,18.4,30.41,NNE,22,8.0,13.0,64,0.00,,---,0.00,VWS V14.01,2013-01-25 14:03:00,
2013-01-25 09:08:00,29.2,18.5,30.41,NNE,23,5.0,13.0,64,0.00,,---,0.00,VWS V14.01,2013-01-25 14:08:00,
2013-01-25 09:13:00,29.7,19.4,30.41,NNE,16,7.0,10.0,65,0.00,,---,0.00,VWS V14.01,2013-01-25 14:13:00,
2013-01-25 09:18:00,30.3,19.6,30.40,NNE,23,6.0,10.0,64,0.00,,---,0.00,VWS V14.01,2013-01-25 14:18:00,
2013-01-25 09:23:00,30.4,19.3,30.40,NNE,13,9.0,11.0,63,0.00,,---,0.00,VWS V14.01,2013-01-25 14:23:00,
2013-01-25 09:28:00,30.7,20.0,30.40,NNE,16,6.0,11.0,64,0.00,,---,0.00,VWS V14.01,2013-01-25 14:28:00,
2013-01-25 09:33:00,30.8,20.1,30.40,NNE,24,4.0,13.0,64,0.00,,---,0.00,VWS V14.01,2013-01-25 14:33:00,
2013-01-25 09:38:00,31.1,20.4,30.40,NNE,19,10.0,13.0,64,0.00,,---,0.00,VWS V14.01,2013-01-25 14:38:00,
2013-01-25 09:43:00,31.2,20.5,30.40,NE,34,9.0,12.0,64,0.00,,---,0.00,VWS V14.01,2013-01-25 14:43:00,
2013-01-25 09:48:00,31.3,20.5,30.39,NNE,30,5.0,12.0,64,0.00,,---,0.00,VWS V14.01,2013-01-25 14:48:00,
2013-01-25 09:53:00,31.6,20.8,30.39,NNE,32,4.0,12.0,64,0.00,,---,0.00,VWS V14.01,2013-01-25 14:53:00,
2013-01-25 09:58:00,31.9,21.1,30.39,NE,38,9.0,12.0,64,0.00,,---,0.00,VWS V14.01,2013-01-25 14:58:00,
2013-01-25 10:03:00,32.2,21.4,30.38,NNE,30,11.0,11.0,64,0.00,,---,0.00,VWS V14.01,2013-01-25 15:03:00,
2013-01-25 10:08:00,32.6,22.1,30.38,NNE,30,5.0,10.0,65,0.00,,---,0.00,VWS V14.01,2013-01-25 15:08:00,
2013-01-25 10:13:00,33.0,22.2,30.38,NNE,30,5.0,9.0,64,0.00,,---,0.00,VWS V14.01,2013-01-25 15:13:00,
2013-01-25 10:18:00,33.2,22.4,30.38,NE,42,5.0,9.0,64,0.00,,---,0.00,VWS V14.01,2013-01-25 15:18:00,
2013-01-25 10:23:00,33.3,22.5,30.38,NE,50,6.0,7.0,64,0.00,,---,0.00,VWS V14.01,2013-01-25 15:23:00,
2013-01-25 10:28:00,33.8,22.9,30.38,ENE,67,6.0,11.0,64,0.00,,---,0.00,VWS V14.01,2013-01-25 15:28:00,
2013-01-25 10:33:00,34.4,23.1,30.36,NNE,28,8.0,10.0,63,0.00,,---,0.00,VWS V14.01,2013-01-25 15:33:00,
2013-01-25 10:38:00,34.9,23.2,30.36,NNE,32,5.0,10.0,62,0.00,,---,0.00,VWS V14.01,2013-01-25 15:38:00,
2013-01-25 10:43:00,35.3,23.6,30.36,NNE,27,6.0,10.0,62,0.00,,---,0.00,VWS V14.01,2013-01-25 15:43:00,
2013-01-25 10:48:00,35.2,23.5,30.37,NNE,29,2.0,6.0,62,0.00,,---,0.00,VWS V14.01,2013-01-25 15:48:00,
2013-01-25 10:53:00,35.2,23.5,30.37,NE,41,5.0,6.0,62,0.00,,---,0.00,VWS V14.01,2013-01-25 15:53:00,
2013-01-25 10:58:00,35.5,23.8,30.37,NE,49,3.0,6.0,62,0.00,,---,0.00,VWS V14.01,2013-01-25 15:58:00,
2013-01-25 11:03:00,35.6,23.5,30.36,NE,52,4.0,7.0,61,0.00,,---,0.00,VWS V14.01,2013-01-25 16:03:00,
2013-01-25 11:08:00,35.9,24.2,30.36,NE,42,4.0,7.0,62,0.00,,---,0.00,VWS V14.01,2013-01-25 16:08:00,
2013-01-25 11:13:00,36.1,24.4,30.36,NE,46,0.0,9.0,62,0.00,,---,0.00,VWS V14.01,2013-01-25 16:13:00,
2013-01-25 11:18:00,35.8,24.1,30.35,NE,40,5.0,6.0,62,0.00,,---,0.00,VWS V14.01,2013-01-25 16:18:00,
2013-01-25 11:23:00,36.1,24.7,30.35,NE,34,1.0,7.0,63,0.00,,---,0.00,VWS V14.01,2013-01-25 16:23:00,
2013-01-25 11:28:00,36.3,24.5,30.35,NNE,32,6.0,7.0,62,0.00,,---,0.00,VWS V14.01,2013-01-25 16:28:00,
2013-01-25 11:33:00,36.5,25.1,30.35,NNE,33,2.0,6.0,63,0.00,,---,0.00,VWS V14.01,2013-01-25 16:33:00,
2013-01-25 11:38:00,37.0,25.2,30.35,NNE,27,6.0,9.0,62,0.00,,---,0.00,VWS V14.01,2013-01-25 16:38:00,
2013-01-25 11:43:00,37.2,25.4,30.35,NNE,25,4.0,8.0,62,0.00,,---,0.00,VWS V14.01,2013-01-25 16:43:00,
2013-01-25 11:48:00,37.4,25.6,30.33,NNE,26,5.0,6.0,62,0.00,,---,0.00,VWS V14.01,2013-01-25 16:48:00,
2013-01-25 11:53:00,37.7,25.9,30.33,NNE,26,1.0,6.0,62,0.00,,---,0.00,VWS V14.01,2013-01-25 16:53:00,
2013-01-25 11:58:00,37.5,25.7,30.33,NNE,24,4.0,10.0,62,0.00,,---,0.00,VWS V14.01,2013-01-25 16:58:00,
2013-01-25 12:03:00,37.7,25.9,30.32,NNE,16,4.0,11.0,62,0.00,,---,0.00,VWS V14.01,2013-01-25 17:03:00,
2013-01-25 12:08:00,37.8,26.4,30.32,NNE,24,4.0,7.0,63,0.00,,---,0.00,VWS V14.01,2013-01-25 17:08:00,
2013-01-25 12:13:00,38.2,26.7,30.32,NE,50,5.0,8.0,63,0.00,,---,0.00,VWS V14.01,2013-01-25 17:13:00,
2013-01-25 12:18:00,38.2,26.7,30.30,NNE,22,4.0,9.0,63,0.00,,---,0.00,VWS V14.01,2013-01-25 17:18:00,
2013-01-25 12:23:00,38.3,26.8,30.30,NNE,31,5.0,7.0,63,0.00,,---,0.00,VWS V14.01,2013-01-25 17:23:00,
2013-01-25 12:28:00,38.2,26.7,30.30,NNE,27,2.0,5.0,63,0.00,,---,0.00,VWS V14.01,2013-01-25 17:28:00,
2013-01-25 12:33:00,38.3,26.8,30.28,NNE,27,9.0,9.0,63,0.00,,---,0.00,VWS V14.01,2013-01-25 17:33:00,
2013-01-25 12:38:00,38.1,26.6,30.28,NNE,24,5.0,8.0,63,0.00,,---,0.00,VWS V14.01,2013-01-25 17:38:00,
2013-01-25 12:43:00,37.9,26.8,30.28,NE,34,5.0,9.0,64,0.00,,---,0.00,VWS V14.01,2013-01-25 17:43:00,
2013-01-25 12:48:00,37.7,26.6,30.27,NNE,31,6.0,10.0,64,0.00,,---,0.00,VWS V14.01,2013-01-25 17:48:00,
2013-01-25 12:53:00,37.5,26.5,30.27,NE,36,4.0,4.0,64,0.00,,---,0.00,VWS V14.01,2013-01-25 17:53:00,
2013-01-25 12:58:00,37.5,26.8,30.27,NE,34,6.0,6.0,65,0.00,,---,0.00,VWS V14.01,2013-01-25 17:58:00,
2013-01-25 13:03:00,37.5,26.8,30.24,NE,37,5.0,5.0,65,0.00,,---,0.00,VWS V14.01,2013-01-25 18:03:00,
2013-01-25 13:08:00,37.6,26.9,30.24,NE,37,0.0,3.0,65,0.00,,---,0.00,VWS V14.01,2013-01-25 18:08:00,
2013-01-25 13:13:00,37.6,26.9,30.24,NE,37,0.0,6.0,65,0.00,,---,0.00,VWS V14.01,2013-01-25 18:13:00,
2013-01-25 13:18:00,37.6,27.3,30.24,NE,37,0.0,5.0,66,0.00,,---,0.00,VWS V14.01,2013-01-25 18:18:00,
2013-01-25 13:23:00,37.6,26.9,30.24,NE,37,0.0,0.0,65,0.00,,---,0.00,VWS V14.01,2013-01-25 18:23:00,
2013-01-25 13:28:00,37.5,26.8,30.24,NE,37,0.0,0.0,65,0.00,,---,0.00,VWS V14.01,2013-01-25 18:28:00,
2013-01-25 13:33:00,37.5,27.2,30.23,NE,37,0.0,0.0,66,0.00,,---,0.00,VWS V14.01,2013-01-25 18:33:00,
2013-01-25 13:38:00,37.5,27.2,30.23,NE,37,0.0,0.0,66,0.00,,---,0.00,VWS V14.01,2013-01-25 18:38:00,
2013-01-25 13:43:00,37.4,27.1,30.23,NE,37,0.0,0.0,66,0.00,,---,0.00,VWS V14.01,2013-01-25 18:43:00,
2013-01-25 13:48:00,37.4,27.5,30.22,NE,37,0.0,1.0,67,0.00,,---,0.00,VWS V14.01,2013-01-25 18:48:00,
2013-01-25 13:53:00,37.3,27.0,30.22,NE,37,0.0,6.0,66,0.00,,---,0.00,VWS V14.01,2013-01-25 18:53:00,
2013-01-25 13:58:00,37.2,27.3,30.22,NE,37,0.0,0.0,67,0.00,,---,0.00,VWS V14.01,2013-01-25 18:58:00,
2013-01-25 14:03:00,37.3,27.4,30.21,NE,53,6.0,7.0,67,0.00,,---,0.00,VWS V14.01,2013-01-25 19:03:00,
2013-01-25 14:08:00,37.2,27.3,30.21,NE,51,0.0,6.0,67,0.00,,---,0.00,VWS V14.01,2013-01-25 19:08:00,
2013-01-25 14:13:00,37.1,27.2,30.21,NE,54,0.0,0.0,67,0.00,,---,0.00,VWS V14.01,2013-01-25 19:13:00,
2013-01-25 14:18:00,37.0,27.1,30.18,East,80,7.0,11.0,67,0.00,,---,0.00,VWS V14.01,2013-01-25 19:18:00,
2013-01-25 14:23:00,37.0,27.1,30.18,ENE,76,6.0,8.0,67,0.00,,---,0.00,VWS V14.01,2013-01-25 19:23:00,
2013-01-25 14:28:00,36.8,26.9,30.18,ENE,73,6.0,7.0,67,0.00,,---,0.00,VWS V14.01,2013-01-25 19:28:00,
2013-01-25 14:33:00,36.7,26.8,30.16,ENE,65,4.0,9.0,67,0.00,,---,0.00,VWS V14.01,2013-01-25 19:33:00,
2013-01-25 14:38:00,36.6,27.0,30.16,ENE,76,0.0,7.0,68,0.00,,---,0.00,VWS V14.01,2013-01-25 19:38:00,
2013-01-25 14:43:00,36.7,27.1,30.16,ENE,77,3.0,5.0,68,0.00,,---,0.00,VWS V14.01,2013-01-25 19:43:00,
2013-01-25 14:48:00,36.6,27.4,30.15,East,85,5.0,9.0,69,0.00,,---,0.00,VWS V14.01,2013-01-25 19:48:00,
2013-01-25 14:53:00,36.6,27.4,30.15,East,80,0.0,6.0,69,0.00,,---,0.00,VWS V14.01,2013-01-25 19:53:00,
2013-01-25 14:58:00,36.6,27.4,30.15,ENE,72,5.0,6.0,69,0.00,,---,0.00,VWS V14.01,2013-01-25 19:58:00,
2013-01-25 15:03:00,36.5,27.7,30.15,NE,38,4.0,8.0,70,0.00,,---,0.00,VWS V14.01,2013-01-25 20:03:00,
2013-01-25 15:08:00,36.6,28.1,30.15,NE,36,6.0,7.0,71,0.00,,---,0.00,VWS V14.01,2013-01-25 20:08:00,
2013-01-25 15:13:00,36.4,27.9,30.15,NE,34,0.0,5.0,71,0.00,,---,0.00,VWS V14.01,2013-01-25 20:13:00,
2013-01-25 15:18:00,36.2,27.7,30.15,NE,40,0.0,0.0,71,0.00,,---,0.00,VWS V14.01,2013-01-25 20:18:00,
2013-01-25 15:23:00,36.1,28.0,30.15,NE,41,0.0,0.0,72,0.00,,---,0.00,VWS V14.01,2013-01-25 20:23:00,
2013-01-25 15:28:00,36.0,27.9,30.15,NE,42,0.0,7.0,72,0.00,,---,0.00,VWS V14.01,2013-01-25 20:28:00,
2013-01-25 15:33:00,35.9,27.8,30.15,NE,47,0.0,3.0,72,0.00,,---,0.00,VWS V14.01,2013-01-25 20:33:00,
2013-01-25 15:38:00,35.9,28.1,30.15,NE,52,5.0,7.0,73,0.00,,---,0.00,VWS V14.01,2013-01-25 20:38:00,
2013-01-25 15:43:00,35.8,28.3,30.15,NE,48,0.0,9.0,74,0.00,,---,0.00,VWS V14.01,2013-01-25 20:43:00,
2013-01-25 15:48:00,35.8,28.3,30.14,NE,42,0.0,0.0,74,0.00,,---,0.00,VWS V14.01,2013-01-25 20:48:00,
2013-01-25 15:53:00,35.8,28.3,30.14,NE,42,0.0,0.0,74,0.00,,---,0.00,VWS V14.01,2013-01-25 20:53:00,
2013-01-25 15:58:00,35.9,28.8,30.14,NE,38,3.0,6.0,75,0.00,,---,0.00,VWS V14.01,2013-01-25 20:58:00,
2013-01-25 16:03:00,35.8,28.7,30.14,NE,35,4.0,6.0,75,0.00,,---,0.00,VWS V14.01,2013-01-25 21:03:00,
2013-01-25 16:08:00,35.7,28.6,30.14,NE,35,0.0,5.0,75,0.00,,---,0.00,VWS V14.01,2013-01-25 21:08:00,
2013-01-25 16:13:00,35.6,28.5,30.14,NE,46,0.0,7.0,75,0.00,,---,0.00,VWS V14.01,2013-01-25 21:13:00,
2013-01-25 16:18:00,35.5,28.4,30.13,NE,38,3.0,7.0,75,0.00,,---,0.00,VWS V14.01,2013-01-25 21:18:00,
2013-01-25 16:23:00,35.2,28.1,30.13,NE,49,6.0,10.0,75,0.00,,---,0.00,VWS V14.01,2013-01-25 21:23:00,
2013-01-25 16:28:00,35.2,28.4,30.13,NNE,18,8.0,10.0,76,0.00,,---,0.00,VWS V14.01,2013-01-25 21:28:00,
2013-01-25 16:33:00,35.3,28.5,30.13,NNE,19,10.0,11.0,76,0.00,,---,0.00,VWS V14.01,2013-01-25 21:33:00,
2013-01-25 16:38:00,35.1,28.3,30.13,NNE,22,5.0,14.0,76,0.00,,---,0.00,VWS V14.01,2013-01-25 21:38:00,
2013-01-25 16:43:00,35.0,28.2,30.13,NNE,24,13.0,13.0,76,0.00,,---,0.00,VWS V14.01,2013-01-25 21:43:00,
2013-01-25 16:48:00,34.8,28.3,30.12,NNE,19,6.0,14.0,77,0.00,,---,0.00,VWS V14.01,2013-01-25 21:48:00,
2013-01-25 16:53:00,34.8,28.3,30.12,NNE,17,11.0,14.0,77,0.00,,---,0.00,VWS V14.01,2013-01-25 21:53:00,
2013-01-25 16:58:00,34.5,28.0,30.12,NNE,22,11.0,14.0,77,0.00,,---,0.00,VWS V14.01,2013-01-25 21:58:00,
2013-01-25 17:03:00,34.2,28.1,30.10,NNE,21,11.0,15.0,78,0.01,,---,0.01,VWS V14.01,2013-01-25 22:03:00,
2013-01-25 17:08:00,34.0,28.2,30.10,NNE,16,13.0,15.0,79,0.01,,---,0.01,VWS V14.01,2013-01-25 22:08:00,
2013-01-25 17:13:00,33.7,28.2,30.10,NNE,19,13.0,16.0,80,0.02,,---,0.02,VWS V14.01,2013-01-25 22:13:00,
2013-01-25 17:18:00,33.7,28.5,30.10,NNE,23,7.0,15.0,81,0.03,,---,0.03,VWS V14.01,2013-01-25 22:18:00,
2013-01-25 17:23:00,33.6,28.7,30.10,NNE,23,8.0,13.0,82,0.03,,---,0.03,VWS V14.01,2013-01-25 22:23:00,
2013-01-25 17:28:00,33.5,28.9,30.10,NE,34,10.0,14.0,83,0.04,,---,0.04,VWS V14.01,2013-01-25 22:28:00,
2013-01-25 17:33:00,33.3,29.0,30.09,NE,38,11.0,15.0,84,0.05,,---,0.05,VWS V14.01,2013-01-25 22:33:00,
2013-01-25 17:38:00,33.4,29.4,30.09,NNE,23,10.0,11.0,85,0.05,,---,0.05,VWS V14.01,2013-01-25 22:38:00,
2013-01-25 17:43:00,33.5,29.8,30.09,NNE,18,11.0,14.0,86,0.06,,---,0.06,VWS V14.01,2013-01-25 22:43:00,
2013-01-25 17:48:00,33.5,30.0,30.08,NNE,22,12.0,15.0,87,0.06,,---,0.06,VWS V14.01,2013-01-25 22:48:00,
2013-01-25 17:53:00,33.5,30.0,30.08,NNE,14,13.0,15.0,87,0.07,,---,0.07,VWS V14.01,2013-01-25 22:53:00,
2013-01-25 17:58:00,33.4,30.2,30.08,NNE,25,9.0,14.0,88,0.07,,---,0.07,VWS V14.01,2013-01-25 22:58:00,
2013-01-25 18:03:00,33.7,30.5,30.07,NNE,25,4.0,10.0,88,0.07,,---,0.07,VWS V14.01,2013-01-25 23:03:00,
2013-01-25 18:08:00,33.8,30.6,30.07,NNE,19,6.0,9.0,88,0.07,,---,0.08,VWS V14.01,2013-01-25 23:08:00,
2013-01-25 18:13:00,33.9,31.0,30.07,NNE,20,10.0,11.0,89,0.07,,---,0.08,VWS V14.01,2013-01-25 23:13:00,
2013-01-25 18:18:00,33.9,31.0,30.06,NNE,20,11.0,11.0,89,0.06,,---,0.08,VWS V14.01,2013-01-25 23:18:00,
2013-01-25 18:23:00,34.1,31.2,30.06,NNE,24,8.0,12.0,89,0.06,,---,0.09,VWS V14.01,2013-01-25 23:23:00,
2013-01-25 18:28:00,34.2,31.6,30.06,NNE,22,10.0,10.0,90,0.05,,---,0.09,VWS V14.01,2013-01-25 23:28:00,
2013-01-25 18:33:00,34.3,31.7,30.05,NNE,21,7.0,10.0,90,0.05,,---,0.10,VWS V14.01,2013-01-25 23:33:00,
2013-01-25 18:38:00,34.4,31.8,30.05,NNE,19,5.0,9.0,90,0.05,,---,0.10,VWS V14.01,2013-01-25 23:38:00,
2013-01-25 18:43:00,34.6,32.0,30.05,North,10,6.0,10.0,90,0.06,,---,0.11,VWS V14.01,2013-01-25 23:43:00,
2013-01-25 18:48:00,34.6,32.0,30.06,NNE,14,4.0,8.0,90,0.05,,---,0.11,VWS V14.01,2013-01-25 23:48:00,
2013-01-25 18:53:00,34.6,32.0,30.06,NNE,14,0.0,5.0,90,0.05,,---,0.11,VWS V14.01,2013-01-25 23:53:00,
2013-01-25 18:58:00,34.5,32.2,30.06,NNE,14,0.0,0.0,91,0.04,,---,0.11,VWS V14.01,2013-01-25 23:58:00,
2013-01-25 19:03:00,34.7,32.3,30.04,NNE,15,0.0,0.0,91,0.04,,---,0.11,VWS V14.01,2013-01-26 00:03:00,
2013-01-25 19:08:00,34.8,32.5,30.04,NNE,14,0.0,0.0,91,0.04,,---,0.11,VWS V14.01,2013-01-26 00:08:00,
2013-01-25 19:13:00,35.0,32.6,30.04,NNE,14,0.0,0.0,91,0.04,,---,0.12,VWS V14.01,2013-01-26 00:13:00,
2013-01-25 19:18:00,35.2,32.8,30.04,NNE,14,0.0,0.0,91,0.04,,---,0.12,VWS V14.01,2013-01-26 00:18:00,
2013-01-25 19:23:00,35.3,32.9,30.04,North,360,0.0,7.0,91,0.04,,---,0.12,VWS V14.01,2013-01-26 00:23:00,
2013-01-25 19:28:00,35.1,32.7,30.04,North,355,3.0,6.0,91,0.03,,---,0.12,VWS V14.01,2013-01-26 00:28:00,
2013-01-25 19:33:00,34.9,32.5,30.04,NNW,332,6.0,9.0,91,0.03,,---,0.12,VWS V14.01,2013-01-26 00:33:00,
2013-01-25 19:38:00,34.6,32.2,30.04,NNW,330,10.0,11.0,91,0.02,,---,0.12,VWS V14.01,2013-01-26 00:38:00,
2013-01-25 19:43:00,34.4,32.0,30.04,NNW,330,9.0,13.0,91,0.02,,---,0.12,VWS V14.01,2013-01-26 00:43:00,
2013-01-25 19:48:00,34.1,31.8,30.07,NW,304,6.0,14.0,91,0.02,,---,0.13,VWS V14.01,2013-01-26 00:48:00,
2013-01-25 19:53:00,33.7,31.6,30.07,NW,322,2.0,14.0,92,0.02,,---,0.13,VWS V14.01,2013-01-26 00:53:00,
2013-01-25 19:58:00,33.7,31.6,30.07,NNW,335,3.0,9.0,92,0.02,,---,0.13,VWS V14.01,2013-01-26 00:58:00,
2013-01-25 20:03:00,33.8,31.7,30.04,NNW,340,0.0,10.0,92,0.03,,---,0.14,VWS V14.01,2013-01-26 01:03:00,
2013-01-25 20:08:00,34.0,31.9,30.04,NNW,340,6.0,11.0,92,0.03,,---,0.14,VWS V14.01,2013-01-26 01:08:00,
2013-01-25 20:13:00,34.0,31.9,30.04,NW,326,4.0,11.0,92,0.03,,---,0.14,VWS V14.01,2013-01-26 01:13:00,
2013-01-25 20:18:00,33.9,31.8,30.05,NW,325,4.0,10.0,92,0.02,,---,0.14,VWS V14.01,2013-01-26 01:18:00,
2013-01-25 20:23:00,34.0,31.9,30.05,NNW,329,3.0,6.0,92,0.02,,---,0.14,VWS V14.01,2013-01-26 01:23:00,
2013-01-25 20:28:00,33.9,31.8,30.05,NNW,329,3.0,9.0,92,0.03,,---,0.15,VWS V14.01,2013-01-26 01:28:00,
2013-01-25 20:33:00,33.9,32.1,30.04,NNW,330,5.0,9.0,93,0.03,,---,0.15,VWS V14.01,2013-01-26 01:33:00,
2013-01-25 20:38:00,33.9,31.8,30.04,NNW,327,6.0,7.0,92,0.03,,---,0.15,VWS V14.01,2013-01-26 01:38:00,
2013-01-25 20:43:00,33.9,32.1,30.04,NNW,327,6.0,10.0,93,0.03,,---,0.15,VWS V14.01,2013-01-26 01:43:00,
2013-01-25 20:48:00,33.8,32.0,30.04,NNW,336,4.0,10.0,93,0.02,,---,0.15,VWS V14.01,2013-01-26 01:48:00,
2013-01-25 20:53:00,33.8,32.0,30.04,NNW,333,9.0,10.0,93,0.03,,---,0.16,VWS V14.01,2013-01-26 01:53:00,
2013-01-25 20:58:00,33.7,31.9,30.04,NW,325,5.0,10.0,93,0.03,,---,0.16,VWS V14.01,2013-01-26 01:58:00,
2013-01-25 21:03:00,33.7,31.9,30.05,NW,324,10.0,13.0,93,0.03,,---,0.16,VWS V14.01,2013-01-26 02:03:00,
2013-01-25 21:08:00,33.7,31.9,30.05,NW,309,10.0,14.0,93,0.02,,---,0.16,VWS V14.01,2013-01-26 02:08:00,
2013-01-25 21:13:00,33.5,31.7,30.05,NW,323,10.0,14.0,93,0.02,,---,0.16,VWS V14.01,2013-01-26 02:13:00,
2013-01-25 21:18:00,33.6,31.8,30.07,NW,317,5.0,12.0,93,0.02,,---,0.16,VWS V14.01,2013-01-26 02:18:00,
2013-01-25 21:23:00,33.6,31.8,30.07,NNW,332,11.0,11.0,93,0.02,,---,0.16,VWS V14.01,2013-01-26 02:23:00,
2013-01-25 21:28:00,33.6,31.8,30.07,NW,316,5.0,12.0,93,0.01,,---,0.16,VWS V14.01,2013-01-26 02:28:00,
2013-01-25 21:33:00,33.5,31.7,30.07,NW,325,8.0,11.0,93,0.01,,---,0.16,VWS V14.01,2013-01-26 02:33:00,
2013-01-25 21:38:00,33.6,31.8,30.07,NNW,341,10.0,13.0,93,0.01,,---,0.16,VWS V14.01,2013-01-26 02:38:00,
2013-01-25 21:43:00,33.6,31.8,30.07,NW,325,6.0,11.0,93,0.01,,---,0.16,VWS V14.01,2013-01-26 02:43:00,
2013-01-25 21:48:00,33.6,31.8,30.08,NNW,336,5.0,12.0,93,0.01,,---,0.16,VWS V14.01,2013-01-26 02:48:00,
2013-01-25 21:53:00,33.7,31.9,30.08,NW,324,4.0,12.0,93,0.01,,---,0.16,VWS V14.01,2013-01-26 02:53:00,
2013-01-25 21:58:00,33.7,31.9,30.08,NNW,341,9.0,11.0,93,0.00,,---,0.16,VWS V14.01,2013-01-26 02:58:00,
2013-01-25 22:03:00,33.5,31.7,30.08,NNW,333,9.0,12.0,93,0.00,,---,0.16,VWS V14.01,2013-01-26 03:03:00,
2013-01-25 22:08:00,33.4,31.6,30.08,NW,326,6.0,11.0,93,0.00,,---,0.16,VWS V14.01,2013-01-26 03:08:00,
2013-01-25 22:13:00,33.3,31.5,30.08,NNW,327,5.0,10.0,93,0.00,,---,0.16,VWS V14.01,2013-01-26 03:13:00,
2013-01-25 22:18:00,33.2,31.4,30.07,NW,321,4.0,9.0,93,0.00,,---,0.16,VWS V14.01,2013-01-26 03:18:00,
2013-01-25 22:23:00,33.3,31.5,30.07,NW,321,1.0,9.0,93,0.00,,---,0.16,VWS V14.01,2013-01-26 03:23:00,
2013-01-25 22:28:00,33.3,31.5,30.07,NW,321,5.0,7.0,93,0.00,,---,0.16,VWS V14.01,2013-01-26 03:28:00,
2013-01-25 22:33:00,33.3,31.5,30.07,NW,321,4.0,7.0,93,0.00,,---,0.16,VWS V14.01,2013-01-26 03:33:00,
2013-01-25 22:38:00,33.3,31.5,30.07,NW,317,5.0,7.0,93,0.00,,---,0.16,VWS V14.01,2013-01-26 03:38:00,
2013-01-25 22:43:00,33.3,31.5,30.07,NW,309,4.0,6.0,93,0.00,,---,0.16,VWS V14.01,2013-01-26 03:43:00,
2013-01-25 22:48:00,33.3,31.5,30.07,NW,309,0.0,0.0,93,0.00,,---,0.16,VWS V14.01,2013-01-26 03:48:00,
2013-01-25 22:53:00,33.4,31.9,30.07,NW,309,0.0,3.0,94,0.00,,---,0.16,VWS V14.01,2013-01-26 03:53:00,
2013-01-25 22:58:00,33.7,32.2,30.07,NW,309,0.0,0.0,94,0.00,,---,0.16,VWS V14.01,2013-01-26 03:58:00,
2013-01-25 23:03:00,33.8,32.3,30.07,NW,304,4.0,7.0,94,0.00,,---,0.16,VWS V14.01,2013-01-26 04:03:00,
2013-01-25 23:08:00,33.9,32.4,30.07,WNW,296,5.0,7.0,94,0.00,,---,0.16,VWS V14.01,2013-01-26 04:08:00,
2013-01-25 23:13:00,33.9,32.4,30.07,WNW,285,6.0,7.0,94,0.00,,---,0.16,VWS V14.01,2013-01-26 04:13:00,
2013-01-25 23:18:00,34.0,32.5,30.07,WNW,285,3.0,5.0,94,0.00,,---,0.16,VWS V14.01,2013-01-26 04:18:00,
2013-01-25 23:23:00,33.9,32.1,30.07,WNW,296,4.0,10.0,93,0.00,,---,0.16,VWS V14.01,2013-01-26 04:23:00,
2013-01-25 23:28:00,34.0,32.5,30.07,WNW,290,5.0,6.0,94,0.00,,---,0.16,VWS V14.01,2013-01-26 04:28:00,
2013-01-25 23:33:00,34.1,32.3,30.08,WNW,283,4.0,8.0,93,0.00,,---,0.16,VWS V14.01,2013-01-26 04:33:00,
2013-01-25 23:38:00,34.1,32.3,30.08,WNW,290,6.0,7.0,93,0.00,,---,0.16,VWS V14.01,2013-01-26 04:38:00,
2013-01-25 23:43:00,34.2,32.4,30.08,WNW,286,3.0,6.0,93,0.00,,---,0.16,VWS V14.01,2013-01-26 04:43:00,
2013-01-25 23:48:00,34.2,32.4,30.08,WNW,282,4.0,7.0,93,0.00,,---,0.16,VWS V14.01,2013-01-26 04:48:00,
2013-01-25 23:53:00,34.2,32.4,30.08,West,275,5.0,7.0,93,0.00,,---,0.16,VWS V14.01,2013-01-26 04:53:00,
2013-01-25 23:58:00,34.2,32.4,30.08,West,275,4.0,7.0,93,0.00,,---,0.16,VWS V14.01,2013-01-26 04:58:00,